81WI weather

CLOSED Gunner Field
Athens, Wisconsin, United States

Public forecast

Using degrees Fahrenheit for public forecast. Weather courtesy of forecast.io.

METAR (pilot weather report)

Closest report is Taylor County Airport, 5.5 nm (10.3 km) WNW. Retrieved 2019/08/18 05:35 UTC (7 minutes ago):

KMDZ 180535Z AUTO 14003KT 10SM SCT027 17/15 A2981 RMK AO2 T01680153

TAF (pilot weather forecast)

Forecast is more than 12 hours old.

Closest forecast is Wausau Downtown Airport, 25.1 nm (46.4 km) ESE. Retrieved 2019/08/17 00:36 UTC (1 day ago):

TAF KAUW 172333Z 1800/1824 17005KT P6SM BKN250 FM180700 13005KT 5SM BR VCSH BKN080 TEMPO 1808/1812 3SM -TSRA BR SCT009 BKN015CB FM181200 14009KT 3SM SHRA BR BKN006 WS015/19035KT FM181600 17009G15KT 5SM SHRA BKN006 FM182000 23014G23KT P6SM BKN025